sensor_id;sensor_type;location;lat;lon;timestamp;pressure;altitude;pressure_sealevel;temperature;humidity
29839;BME280;18669;53.356;-1.464;2022-10-31T00:00:24;100391.41;;;12.11;100.00
29839;BME280;18669;53.356;-1.464;2022-10-31T00:02:50;100396.09;;;12.30;100.00
29839;BME280;18669;53.356;-1.464;2022-10-31T00:05:16;100392.44;;;12.05;100.00
29839;BME280;18669;53.356;-1.464;2022-10-31T00:07:42;100397.28;;;12.19;100.00
29839;BME280;18669;53.356;-1.464;2022-10-31T00:10:08;100394.38;;;11.99;100.00
29839;BME280;18669;53.356;-1.464;2022-10-31T00:12:35;100393.56;;;11.97;100.00
29839;BME280;18669;53.356;-1.464;2022-10-31T00:15:02;100401.53;;;11.95;100.00
29839;BME280;18669;53.356;-1.464;2022-10-31T00:17:29;100399.91;;;11.91;100.00
29839;BME280;18669;53.356;-1.464;2022-10-31T00:19:55;100407.38;;;12.06;100.00
29839;BME280;18669;53.356;-1.464;2022-10-31T00:22:21;100401.88;;;11.83;100.00
29839;BME280;18669;53.356;-1.464;2022-10-31T00:24:47;100390.03;;;11.99;100.00
29839;BME280;18669;53.356;-1.464;2022-10-31T00:27:13;100397.69;;;11.75;100.00
29839;BME280;18669;53.356;-1.464;2022-10-31T00:29:39;100400.50;;;11.69;100.00
29839;BME280;18669;53.356;-1.464;2022-10-31T00:32:06;100395.53;;;11.60;100.00
29839;BME280;18669;53.356;-1.464;2022-10-31T00:34:32;100404.25;;;11.62;100.00
29839;BME280;18669;53.356;-1.464;2022-10-31T00:36:58;100402.03;;;11.78;100.00
29839;BME280;18669;53.356;-1.464;2022-10-31T00:39:24;100408.78;;;11.57;100.00
29839;BME280;18669;53.356;-1.464;2022-10-31T00:41:50;100405.75;;;11.71;100.00
29839;BME280;18669;53.356;-1.464;2022-10-31T00:44:16;100407.22;;;11.49;100.00
29839;BME280;18669;53.356;-1.464;2022-10-31T00:46:42;100403.34;;;11.63;100.00
29839;BME280;18669;53.356;-1.464;2022-10-31T00:49:08;100409.28;;;11.38;100.00
29839;BME280;18669;53.356;-1.464;2022-10-31T00:51:34;100402.69;;;11.55;100.00
29839;BME280;18669;53.356;-1.464;2022-10-31T00:54:00;100397.31;;;11.26;100.00
29839;BME280;18669;53.356;-1.464;2022-10-31T00:56:26;100412.56;;;11.46;100.00
29839;BME280;18669;53.356;-1.464;2022-10-31T00:58:52;100415.81;;;11.25;100.00
29839;BME280;18669;53.356;-1.464;2022-10-31T01:01:18;100411.91;;;11.40;100.00
29839;BME280;18669;53.356;-1.464;2022-10-31T01:03:44;100415.28;;;11.12;100.00
29839;BME280;18669;53.356;-1.464;2022-10-31T01:06:11;100415.59;;;11.32;100.00
29839;BME280;18669;53.356;-1.464;2022-10-31T01:08:38;100417.81;;;11.15;100.00
29839;BME280;18669;53.356;-1.464;2022-10-31T01:13:35;100415.38;;;11.07;100.00
29839;BME280;18669;53.356;-1.464;2022-10-31T01:16:03;100416.25;;;11.08;100.00
29839;BME280;18669;53.356;-1.464;2022-10-31T01:18:30;100422.59;;;11.00;100.00
29839;BME280;18669;53.356;-1.464;2022-10-31T01:21:16;100424.31;;;11.01;100.00
29839;BME280;18669;53.356;-1.464;2022-10-31T01:23:42;100426.03;;;11.02;100.00
29839;BME280;18669;53.356;-1.464;2022-10-31T01:26:10;100430.72;;;11.26;100.00
29839;BME280;18669;53.356;-1.464;2022-10-31T01:28:39;100431.63;;;11.23;100.00
29839;BME280;18669;53.356;-1.464;2022-10-31T01:31:08;100430.72;;;11.26;100.00
29839;BME280;18669;53.356;-1.464;2022-10-31T01:33:36;100429.47;;;11.39;100.00
29839;BME280;18669;53.356;-1.464;2022-10-31T01:36:14;100429.13;;;11.52;100.00
29839;BME280;18669;53.356;-1.464;2022-10-31T01:38:41;100422.38;;;11.41;100.00
29839;BME280;18669;53.356;-1.464;2022-10-31T01:41:07;100421.78;;;11.63;100.00
29839;BME280;18669;53.356;-1.464;2022-10-31T01:48:55;100425.13;;;11.68;100.00
29839;BME280;18669;53.356;-1.464;2022-10-31T01:51:26;100417.78;;;11.81;100.00
29839;BME280;18669;53.356;-1.464;2022-10-31T01:53:58;100423.72;;;11.88;100.00
29839;BME280;18669;53.356;-1.464;2022-10-31T01:56:26;100428.34;;;11.79;100.00
29839;BME280;18669;53.356;-1.464;2022-10-31T01:58:54;100432.34;;;11.93;100.00
29839;BME280;18669;53.356;-1.464;2022-10-31T02:01:21;100430.56;;;11.93;100.00
29839;BME280;18669;53.356;-1.464;2022-10-31T02:03:47;100434.84;;;11.98;100.00
29839;BME280;18669;53.356;-1.464;2022-10-31T02:06:24;100430.00;;;12.14;100.00
29839;BME280;18669;53.356;-1.464;2022-10-31T02:08:53;100435.38;;;12.11;100.00
29839;BME280;18669;53.356;-1.464;2022-10-31T02:11:20;100436.44;;;12.05;100.00
29839;BME280;18669;53.356;-1.464;2022-10-31T02:13:46;100440.03;;;12.31;100.00
29839;BME280;18669;53.356;-1.464;2022-10-31T02:16:13;100437.91;;;12.14;100.00
29839;BME280;18669;53.356;-1.464;2022-10-31T02:18:39;100442.28;;;12.15;100.00
29839;BME280;18669;53.356;-1.464;2022-10-31T02:27:22;100443.34;;;12.37;100.00
29839;BME280;18669;53.356;-1.464;2022-10-31T02:45:13;100436.84;;;12.49;100.00
29839;BME280;18669;53.356;-1.464;2022-10-31T02:47:41;100439.84;;;12.37;100.00
29839;BME280;18669;53.356;-1.464;2022-10-31T02:50:15;100435.22;;;12.45;100.00
29839;BME280;18669;53.356;-1.464;2022-10-31T02:52:43;100439.13;;;12.32;100.00
29839;BME280;18669;53.356;-1.464;2022-10-31T02:55:10;100428.84;;;12.51;100.00
29839;BME280;18669;53.356;-1.464;2022-10-31T02:57:39;100430.16;;;12.37;100.00
29839;BME280;18669;53.356;-1.464;2022-10-31T03:00:08;100425.13;;;12.30;100.00
29839;BME280;18669;53.356;-1.464;2022-10-31T03:03:25;100424.13;;;12.34;100.00
29839;BME280;18669;53.356;-1.464;2022-10-31T03:08:41;100422.38;;;12.33;100.00
29839;BME280;18669;53.356;-1.464;2022-10-31T03:11:11;100422.00;;;12.17;100.00
29839;BME280;18669;53.356;-1.464;2022-10-31T03:14:00;100416.38;;;12.29;100.00
29839;BME280;18669;53.356;-1.464;2022-10-31T03:16:50;100413.53;;;12.35;100.00
29839;BME280;18669;53.356;-1.464;2022-10-31T03:19:32;100398.75;;;12.30;100.00
29839;BME280;18669;53.356;-1.464;2022-10-31T03:22:04;100396.25;;;12.25;100.00
29839;BME280;18669;53.356;-1.464;2022-10-31T03:24:36;100399.00;;;12.22;100.00
29839;BME280;18669;53.356;-1.464;2022-10-31T03:27:05;100393.91;;;12.16;100.00
29839;BME280;18669;53.356;-1.464;2022-10-31T03:29:35;100386.97;;;12.13;100.00
29839;BME280;18669;53.356;-1.464;2022-10-31T03:32:08;100392.31;;;12.10;100.00
29839;BME280;18669;53.356;-1.464;2022-10-31T03:34:37;100387.91;;;12.11;100.00
29839;BME280;18669;53.356;-1.464;2022-10-31T03:37:08;100393.06;;;12.15;100.00
29839;BME280;18669;53.356;-1.464;2022-10-31T03:39:37;100390.44;;;12.14;100.00
29839;BME280;18669;53.356;-1.464;2022-10-31T03:42:06;100398.50;;;12.09;100.00
29839;BME280;18669;53.356;-1.464;2022-10-31T03:44:35;100384.22;;;12.16;100.00
29839;BME280;18669;53.356;-1.464;2022-10-31T03:47:04;100381.59;;;12.16;100.00
29839;BME280;18669;53.356;-1.464;2022-10-31T03:49:31;100385.72;;;12.25;100.00
29839;BME280;18669;53.356;-1.464;2022-10-31T03:55:03;100377.59;;;12.31;100.00
29839;BME280;18669;53.356;-1.464;2022-10-31T04:00:42;100386.53;;;12.27;100.00
29839;BME280;18669;53.356;-1.464;2022-10-31T04:03:16;100390.91;;;12.28;100.00
29839;BME280;18669;53.356;-1.464;2022-10-31T04:05:45;100395.28;;;12.28;100.00
29839;BME280;18669;53.356;-1.464;2022-10-31T04:08:17;100400.38;;;12.34;100.00
29839;BME280;18669;53.356;-1.464;2022-10-31T04:10:48;100389.88;;;12.32;100.00
29839;BME280;18669;53.356;-1.464;2022-10-31T04:13:20;100381.97;;;12.32;100.00
29839;BME280;18669;53.356;-1.464;2022-10-31T04:15:50;100386.81;;;12.18;100.00
29839;BME280;18669;53.356;-1.464;2022-10-31T04:18:18;100377.34;;;12.11;100.00
29839;BME280;18669;53.356;-1.464;2022-10-31T04:20:44;100385.66;;;12.27;100.00
29839;BME280;18669;53.356;-1.464;2022-10-31T04:23:21;100373.72;;;12.15;100.00
29839;BME280;18669;53.356;-1.464;2022-10-31T04:25:48;100387.38;;;11.98;100.00
29839;BME280;18669;53.356;-1.464;2022-10-31T04:28:14;100385.81;;;11.92;100.00
29839;BME280;18669;53.356;-1.464;2022-10-31T04:30:40;100382.59;;;12.12;100.00
29839;BME280;18669;53.356;-1.464;2022-10-31T04:33:06;100388.28;;;11.97;100.00
29839;BME280;18669;53.356;-1.464;2022-10-31T04:35:32;100386.47;;;12.00;100.00
29839;BME280;18669;53.356;-1.464;2022-10-31T04:37:58;100384.81;;;12.26;100.00
29839;BME280;18669;53.356;-1.464;2022-10-31T04:40:24;100377.34;;;12.11;100.00
29839;BME280;18669;53.356;-1.464;2022-10-31T04:42:50;100376.59;;;12.35;100.00
29839;BME280;18669;53.356;-1.464;2022-10-31T04:45:16;100368.28;;;12.19;100.00
29839;BME280;18669;53.356;-1.464;2022-10-31T04:47:42;100363.72;;;12.24;100.00
29839;BME280;18669;53.356;-1.464;2022-10-31T04:50:09;100357.81;;;12.45;100.00
29839;BME280;18669;53.356;-1.464;2022-10-31T04:52:41;100355.34;;;12.40;100.00
29839;BME280;18669;53.356;-1.464;2022-10-31T04:55:09;100343.16;;;12.36;100.00
29839;BME280;18669;53.356;-1.464;2022-10-31T04:57:43;100350.81;;;12.44;100.00
29839;BME280;18669;53.356;-1.464;2022-10-31T05:00:11;100352.03;;;12.33;100.00
29839;BME280;18669;53.356;-1.464;2022-10-31T05:05:11;100342.34;;;12.34;100.00
29839;BME280;18669;53.356;-1.464;2022-10-31T05:07:39;100333.63;;;12.32;100.00
29839;BME280;18669;53.356;-1.464;2022-10-31T05:10:07;100327.72;;;12.23;100.00
29839;BME280;18669;53.356;-1.464;2022-10-31T05:12:35;100330.50;;;12.19;100.00
29839;BME280;18669;53.356;-1.464;2022-10-31T05:15:02;100343.78;;;12.16;100.00
29839;BME280;18669;53.356;-1.464;2022-10-31T05:17:30;100346.34;;;12.19;100.00
29839;BME280;18669;53.356;-1.464;2022-10-31T05:19:56;100338.72;;;12.09;100.00
29839;BME280;18669;53.356;-1.464;2022-10-31T05:22:22;100350.22;;;12.35;100.00
29839;BME280;18669;53.356;-1.464;2022-10-31T05:24:48;100343.69;;;12.19;100.00
29839;BME280;18669;53.356;-1.464;2022-10-31T05:27:14;100344.78;;;12.40;100.00
29839;BME280;18669;53.356;-1.464;2022-10-31T05:29:41;100349.72;;;12.22;100.00
29839;BME280;18669;53.356;-1.464;2022-10-31T05:32:07;100340.31;;;12.42;100.00
29839;BME280;18669;53.356;-1.464;2022-10-31T05:34:33;100334.72;;;12.24;100.00
29839;BME280;18669;53.356;-1.464;2022-10-31T05:36:59;100334.94;;;12.45;100.00
29839;BME280;18669;53.356;-1.464;2022-10-31T05:39:25;100334.59;;;12.29;100.00
29839;BME280;18669;53.356;-1.464;2022-10-31T05:41:51;100331.88;;;12.31;100.00
29839;BME280;18669;53.356;-1.464;2022-10-31T05:44:17;100331.97;;;12.54;100.00
29839;BME280;18669;53.356;-1.464;2022-10-31T05:46:43;100324.69;;;12.36;100.00
29839;BME280;18669;53.356;-1.464;2022-10-31T05:49:09;100331.03;;;12.57;100.00
29839;BME280;18669;53.356;-1.464;2022-10-31T05:51:35;100327.25;;;12.37;100.00
29839;BME280;18669;53.356;-1.464;2022-10-31T05:54:01;100334.69;;;12.53;100.00
29839;BME280;18669;53.356;-1.464;2022-10-31T05:56:27;100328.19;;;12.36;100.00
29839;BME280;18669;53.356;-1.464;2022-10-31T05:58:53;100332.75;;;12.58;100.00
29839;BME280;18669;53.356;-1.464;2022-10-31T06:01:19;100330.69;;;12.41;100.00
29839;BME280;18669;53.356;-1.464;2022-10-31T06:03:45;100330.94;;;12.60;100.00
29839;BME280;18669;53.356;-1.464;2022-10-31T06:06:11;100328.06;;;12.39;100.00
29839;BME280;18669;53.356;-1.464;2022-10-31T06:08:37;100331.63;;;12.65;100.00
29839;BME280;18669;53.356;-1.464;2022-10-31T06:11:03;100325.25;;;12.46;100.00
29839;BME280;18669;53.356;-1.464;2022-10-31T06:13:29;100330.47;;;12.47;100.00
29839;BME280;18669;53.356;-1.464;2022-10-31T06:15:55;100333.28;;;12.68;100.00
29839;BME280;18669;53.356;-1.464;2022-10-31T06:18:21;100327.84;;;12.47;100.00
29839;BME280;18669;53.356;-1.464;2022-10-31T06:20:47;100324.44;;;12.71;100.00
29839;BME280;18669;53.356;-1.464;2022-10-31T06:23:13;100328.50;;;12.54;100.00
29839;BME280;18669;53.356;-1.464;2022-10-31T06:25:39;100325.38;;;12.68;100.00
29839;BME280;18669;53.356;-1.464;2022-10-31T06:28:05;100323.22;;;12.54;100.00
29839;BME280;18669;53.356;-1.464;2022-10-31T06:30:31;100322.53;;;12.74;100.00
29839;BME280;18669;53.356;-1.464;2022-10-31T06:33:04;100323.38;;;12.75;100.00
29839;BME280;18669;53.356;-1.464;2022-10-31T06:35:30;100315.84;;;12.64;100.00
29839;BME280;18669;53.356;-1.464;2022-10-31T06:37:57;100314.19;;;12.61;100.00
29839;BME280;18669;53.356;-1.464;2022-10-31T06:40:23;100306.97;;;12.66;100.00
29839;BME280;18669;53.356;-1.464;2022-10-31T06:42:57;100300.41;;;12.78;100.00
29839;BME280;18669;53.356;-1.464;2022-10-31T06:45:24;100303.34;;;12.69;100.00
29839;BME280;18669;53.356;-1.464;2022-10-31T06:47:53;100306.25;;;12.61;100.00
29839;BME280;18669;53.356;-1.464;2022-10-31T06:50:20;100302.81;;;12.59;100.00
29839;BME280;18669;53.356;-1.464;2022-10-31T06:52:53;100300.88;;;12.64;100.00
29839;BME280;18669;53.356;-1.464;2022-10-31T06:55:22;100305.47;;;12.58;100.00
29839;BME280;18669;53.356;-1.464;2022-10-31T06:57:53;100298.25;;;12.64;100.00
29839;BME280;18669;53.356;-1.464;2022-10-31T07:00:21;100309.94;;;12.56;100.00
29839;BME280;18669;53.356;-1.464;2022-10-31T07:03:05;100304.00;;;12.76;100.00
29839;BME280;18669;53.356;-1.464;2022-10-31T07:05:32;100306.16;;;12.64;100.00
29839;BME280;18669;53.356;-1.464;2022-10-31T07:08:00;100298.81;;;12.73;100.00
29839;BME280;18669;53.356;-1.464;2022-10-31T07:10:30;100294.41;;;12.73;100.00
29839;BME280;18669;53.356;-1.464;2022-10-31T07:12:57;100303.41;;;12.67;100.00
29839;BME280;18669;53.356;-1.464;2022-10-31T07:15:25;100302.59;;;12.65;100.00
29839;BME280;18669;53.356;-1.464;2022-10-31T07:17:51;100297.63;;;12.56;100.00
29839;BME280;18669;53.356;-1.464;2022-10-31T07:20:18;100292.47;;;12.53;100.00
29839;BME280;18669;53.356;-1.464;2022-10-31T07:22:44;100295.31;;;12.47;100.00
29839;BME280;18669;53.356;-1.464;2022-10-31T07:25:11;100301.34;;;12.50;100.00
29839;BME280;18669;53.356;-1.464;2022-10-31T07:27:39;100298.84;;;12.46;100.00
29839;BME280;18669;53.356;-1.464;2022-10-31T07:30:07;100297.75;;;12.53;100.00
29839;BME280;18669;53.356;-1.464;2022-10-31T07:32:47;100296.72;;;12.57;100.00
29839;BME280;18669;53.356;-1.464;2022-10-31T07:35:19;100300.47;;;12.50;100.00
29839;BME280;18669;53.356;-1.464;2022-10-31T07:37:46;100305.16;;;12.42;100.00
29839;BME280;18669;53.356;-1.464;2022-10-31T07:40:13;100300.66;;;12.45;100.00
29839;BME280;18669;53.356;-1.464;2022-10-31T07:42:44;100309.00;;;12.58;100.00
29839;BME280;18669;53.356;-1.464;2022-10-31T07:45:14;100314.00;;;12.66;100.00
29839;BME280;18669;53.356;-1.464;2022-10-31T07:47:48;100310.06;;;12.78;100.00
29839;BME280;18669;53.356;-1.464;2022-10-31T07:50:26;100305.88;;;12.72;100.00
29839;BME280;18669;53.356;-1.464;2022-10-31T07:53:12;100315.34;;;12.78;100.00
29839;BME280;18669;53.356;-1.464;2022-10-31T07:55:39;100308.63;;;12.69;100.00
29839;BME280;18669;53.356;-1.464;2022-10-31T07:58:06;100312.94;;;12.72;100.00
29839;BME280;18669;53.356;-1.464;2022-10-31T08:00:33;100307.41;;;12.79;100.00
29839;BME280;18669;53.356;-1.464;2022-10-31T08:03:11;100308.47;;;12.99;100.00
29839;BME280;18669;53.356;-1.464;2022-10-31T08:05:38;100313.22;;;12.89;100.00
29839;BME280;18669;53.356;-1.464;2022-10-31T08:08:05;100325.56;;;12.89;100.00
29839;BME280;18669;53.356;-1.464;2022-10-31T08:10:33;100316.88;;;12.85;100.00
29839;BME280;18669;53.356;-1.464;2022-10-31T08:13:05;100318.59;;;12.86;100.00
29839;BME280;18669;53.356;-1.464;2022-10-31T08:15:32;100325.56;;;12.89;100.00
29839;BME280;18669;53.356;-1.464;2022-10-31T08:18:00;100322.38;;;12.79;100.00
29839;BME280;18669;53.356;-1.464;2022-10-31T08:20:27;100332.00;;;12.80;100.00
29839;BME280;18669;53.356;-1.464;2022-10-31T08:22:54;100333.22;;;12.96;100.00
29839;BME280;18669;53.356;-1.464;2022-10-31T08:25:21;100335.25;;;12.88;100.00
29839;BME280;18669;53.356;-1.464;2022-10-31T08:27:50;100331.41;;;12.97;100.00
29839;BME280;18669;53.356;-1.464;2022-10-31T08:30:17;100328.06;;;12.92;100.00
29839;BME280;18669;53.356;-1.464;2022-10-31T08:32:44;100340.59;;;12.87;100.00
29839;BME280;18669;53.356;-1.464;2022-10-31T08:35:10;100323.25;;;13.05;100.00
29839;BME280;18669;53.356;-1.464;2022-10-31T08:37:36;100320.16;;;12.92;100.00
29839;BME280;18669;53.356;-1.464;2022-10-31T08:40:02;100326.25;;;12.94;100.00
29839;BME280;18669;53.356;-1.464;2022-10-31T08:42:30;100326.13;;;12.97;100.00
29839;BME280;18669;53.356;-1.464;2022-10-31T08:44:56;100316.25;;;13.27;100.00
29839;BME280;18669;53.356;-1.464;2022-10-31T08:47:22;100312.31;;;13.14;100.00
29839;BME280;18669;53.356;-1.464;2022-10-31T08:49:48;100316.66;;;13.17;100.00
29839;BME280;18669;53.356;-1.464;2022-10-31T08:52:14;100318.88;;;13.27;100.00
29839;BME280;18669;53.356;-1.464;2022-10-31T08:54:41;100318.31;;;13.19;100.00
29839;BME280;18669;53.356;-1.464;2022-10-31T08:57:07;100319.38;;;13.39;100.00
29839;BME280;18669;53.356;-1.464;2022-10-31T08:59:33;100321.44;;;13.05;100.00
29839;BME280;18669;53.356;-1.464;2022-10-31T09:02:00;100324.38;;;12.97;100.00
29839;BME280;18669;53.356;-1.464;2022-10-31T09:04:26;100328.06;;;13.17;100.00
29839;BME280;18669;53.356;-1.464;2022-10-31T09:06:52;100324.03;;;13.07;100.00
29839;BME280;18669;53.356;-1.464;2022-10-31T09:09:18;100317.88;;;13.06;100.00
29839;BME280;18669;53.356;-1.464;2022-10-31T09:11:44;100310.03;;;13.05;100.00
29839;BME280;18669;53.356;-1.464;2022-10-31T09:14:12;100305.53;;;13.07;100.00
29839;BME280;18669;53.356;-1.464;2022-10-31T09:16:38;100294.19;;;13.05;100.00
29839;BME280;18669;53.356;-1.464;2022-10-31T09:19:04;100310.16;;;13.25;100.00
29839;BME280;18669;53.356;-1.464;2022-10-31T09:21:30;100310.72;;;13.10;100.00
29839;BME280;18669;53.356;-1.464;2022-10-31T09:23:56;100306.31;;;13.10;100.00
29839;BME280;18669;53.356;-1.464;2022-10-31T09:26:23;100306.94;;;13.17;100.00
29839;BME280;18669;53.356;-1.464;2022-10-31T09:28:49;100302.34;;;13.22;100.00
29839;BME280;18669;53.356;-1.464;2022-10-31T09:31:15;100299.47;;;13.28;100.00
29839;BME280;18669;53.356;-1.464;2022-10-31T09:33:41;100296.72;;;13.32;100.00
29839;BME280;18669;53.356;-1.464;2022-10-31T09:36:08;100293.28;;;13.53;100.00
29839;BME280;18669;53.356;-1.464;2022-10-31T09:38:34;100281.25;;;13.68;100.00
29839;BME280;18669;53.356;-1.464;2022-10-31T09:41:13;100274.63;;;13.80;100.00
29839;BME280;18669;53.356;-1.464;2022-10-31T09:52:05;100264.59;;;14.31;100.00
29839;BME280;18669;53.356;-1.464;2022-10-31T09:54:45;100262.84;;;14.32;100.00
29839;BME280;18669;53.356;-1.464;2022-10-31T09:57:18;100264.59;;;14.31;100.00
29839;BME280;18669;53.356;-1.464;2022-10-31T09:59:47;100268.47;;;14.45;100.00
29839;BME280;18669;53.356;-1.464;2022-10-31T10:04:58;100276.03;;;14.54;100.00
29839;BME280;18669;53.356;-1.464;2022-10-31T10:10:18;100270.25;;;14.65;100.00
29839;BME280;18669;53.356;-1.464;2022-10-31T10:26:01;100263.25;;;14.43;100.00
29839;BME280;18669;53.356;-1.464;2022-10-31T10:28:33;100264.97;;;14.44;100.00
29839;BME280;18669;53.356;-1.464;2022-10-31T10:31:13;100261.19;;;14.50;100.00
29839;BME280;18669;53.356;-1.464;2022-10-31T10:33:54;100259.47;;;14.49;100.00
29839;BME280;18669;53.356;-1.464;2022-10-31T10:39:11;100257.53;;;14.53;100.00
29839;BME280;18669;53.356;-1.464;2022-10-31T10:41:44;100253.13;;;14.53;100.00
29839;BME280;18669;53.356;-1.464;2022-10-31T10:44:13;100251.53;;;14.49;100.00
29839;BME280;18669;53.356;-1.464;2022-10-31T10:46:43;100257.66;;;14.50;100.00
29839;BME280;18669;53.356;-1.464;2022-10-31T10:49:38;100246.44;;;14.65;100.00
29839;BME280;18669;53.356;-1.464;2022-10-31T10:52:33;100246.72;;;14.80;100.00
29839;BME280;18669;53.356;-1.464;2022-10-31T10:57:58;100250.56;;;14.72;100.00
29839;BME280;18669;53.356;-1.464;2022-10-31T11:00:27;100247.97;;;14.91;100.00
29839;BME280;18669;53.356;-1.464;2022-10-31T11:02:55;100241.69;;;14.73;100.00
29839;BME280;18669;53.356;-1.464;2022-10-31T11:07:48;100252.25;;;14.53;100.00
29839;BME280;18669;53.356;-1.464;2022-10-31T11:10:15;100248.63;;;14.55;100.00
29839;BME280;18669;53.356;-1.464;2022-10-31T11:12:57;100237.97;;;14.57;100.00
29839;BME280;18669;53.356;-1.464;2022-10-31T11:15:26;100246.94;;;14.53;100.00
29839;BME280;18669;53.356;-1.464;2022-10-31T11:17:55;100238.69;;;14.60;100.00
29839;BME280;18669;53.356;-1.464;2022-10-31T11:23:01;100220.31;;;14.97;100.00
29839;BME280;18669;53.356;-1.464;2022-10-31T11:25:28;100215.34;;;14.70;100.00
29839;BME280;18669;53.356;-1.464;2022-10-31T11:28:10;100213.59;;;14.90;100.00
29839;BME280;18669;53.356;-1.464;2022-10-31T11:30:44;100205.09;;;15.02;100.00
29839;BME280;18669;53.356;-1.464;2022-10-31T11:33:20;100191.28;;;15.34;100.00
29839;BME280;18669;53.356;-1.464;2022-10-31T11:35:49;100195.31;;;15.41;100.00
29839;BME280;18669;53.356;-1.464;2022-10-31T11:38:18;100185.75;;;15.56;100.00
29839;BME280;18669;53.356;-1.464;2022-10-31T11:41:00;100196.81;;;15.66;100.00
29839;BME280;18669;53.356;-1.464;2022-10-31T11:43:31;100184.56;;;15.44;100.00
29839;BME280;18669;53.356;-1.464;2022-10-31T11:45:58;100186.28;;;15.45;100.00
29839;BME280;18669;53.356;-1.464;2022-10-31T11:48:24;100180.94;;;15.47;100.00
29839;BME280;18669;53.356;-1.464;2022-10-31T11:50:55;100178.44;;;15.44;100.00
29839;BME280;18669;53.356;-1.464;2022-10-31T11:53:33;100169.69;;;15.42;100.00
29839;BME280;18669;53.356;-1.464;2022-10-31T11:56:18;100179.50;;;15.40;100.00
29839;BME280;18669;53.356;-1.464;2022-10-31T11:58:58;100175.78;;;15.44;100.00
29839;BME280;18669;53.356;-1.464;2022-10-31T12:01:28;100165.22;;;15.42;100.00
29839;BME280;18669;53.356;-1.464;2022-10-31T12:04:08;100162.28;;;15.48;100.00
29839;BME280;18669;53.356;-1.464;2022-10-31T12:06:40;100158.28;;;15.40;100.00
29839;BME280;18669;53.356;-1.464;2022-10-31T12:14:28;100136.94;;;15.43;100.00
29839;BME280;18669;53.356;-1.464;2022-10-31T12:17:19;100141.16;;;15.47;100.00
29839;BME280;18669;53.356;-1.464;2022-10-31T12:20:23;100140.63;;;15.21;100.00
29839;BME280;18669;53.356;-1.464;2022-10-31T12:22:57;100131.53;;;15.27;100.00
29839;BME280;18669;53.356;-1.464;2022-10-31T12:39:40;100117.91;;;16.90;100.00
29839;BME280;18669;53.356;-1.464;2022-10-31T12:50:20;100096.84;;;16.03;100.00
29839;BME280;18669;53.356;-1.464;2022-10-31T12:58:26;100081.22;;;15.62;100.00
29839;BME280;18669;53.356;-1.464;2022-10-31T13:03:33;100064.44;;;15.61;100.00
29839;BME280;18669;53.356;-1.464;2022-10-31T13:06:09;100063.59;;;15.61;100.00
29839;BME280;18669;53.356;-1.464;2022-10-31T13:08:53;100059.69;;;15.50;100.00
29839;BME280;18669;53.356;-1.464;2022-10-31T13:11:34;100044.94;;;15.62;100.00
29839;BME280;18669;53.356;-1.464;2022-10-31T13:14:03;100051.31;;;15.58;100.00
29839;BME280;18669;53.356;-1.464;2022-10-31T13:16:36;100046.03;;;15.76;100.00
29839;BME280;18669;53.356;-1.464;2022-10-31T13:24:30;100040.56;;;15.79;100.00
29839;BME280;18669;53.356;-1.464;2022-10-31T13:26:59;100049.47;;;15.78;100.00
29839;BME280;18669;53.356;-1.464;2022-10-31T13:29:36;100042.03;;;15.85;100.00
29839;BME280;18669;53.356;-1.464;2022-10-31T13:32:04;100039.47;;;16.01;100.00
29839;BME280;18669;53.356;-1.464;2022-10-31T13:34:40;100027.31;;;15.79;100.00
29839;BME280;18669;53.356;-1.464;2022-10-31T13:37:31;100016.44;;;15.84;100.00
29839;BME280;18669;53.356;-1.464;2022-10-31T13:40:17;99997.75;;;15.87;100.00
29839;BME280;18669;53.356;-1.464;2022-10-31T13:45:23;100004.38;;;15.78;100.00
29839;BME280;18669;53.356;-1.464;2022-10-31T13:48:28;99994.19;;;15.70;100.00
29839;BME280;18669;53.356;-1.464;2022-10-31T13:51:05;99989.09;;;15.65;100.00
29839;BME280;18669;53.356;-1.464;2022-10-31T13:56:15;99976.81;;;15.80;100.00
29839;BME280;18669;53.356;-1.464;2022-10-31T14:01:23;99963.47;;;15.66;100.00
29839;BME280;18669;53.356;-1.464;2022-10-31T14:06:34;99965.75;;;15.72;100.00
29839;BME280;18669;53.356;-1.464;2022-10-31T14:09:03;99961.91;;;15.62;100.00
29839;BME280;18669;53.356;-1.464;2022-10-31T14:11:30;99961.19;;;15.58;100.00
29839;BME280;18669;53.356;-1.464;2022-10-31T14:13:57;99954.31;;;15.72;100.00
29839;BME280;18669;53.356;-1.464;2022-10-31T14:16:30;99957.72;;;15.91;100.00
29839;BME280;18669;53.356;-1.464;2022-10-31T14:19:04;99955.06;;;15.91;100.00
29839;BME280;18669;53.356;-1.464;2022-10-31T14:21:38;99957.47;;;15.96;100.00
29839;BME280;18669;53.356;-1.464;2022-10-31T14:26:59;99955.00;;;15.75;100.00
29839;BME280;18669;53.356;-1.464;2022-10-31T14:29:26;99950.50;;;15.60;100.00
29839;BME280;18669;53.356;-1.464;2022-10-31T14:31:54;99942.63;;;15.58;100.00
29839;BME280;18669;53.356;-1.464;2022-10-31T14:34:32;99938.31;;;15.73;100.00
29839;BME280;18669;53.356;-1.464;2022-10-31T14:43:07;99914.06;;;15.63;100.00
29839;BME280;18669;53.356;-1.464;2022-10-31T14:51:18;99894.63;;;15.47;100.00
29839;BME280;18669;53.356;-1.464;2022-10-31T14:53:49;99901.72;;;15.46;100.00
29839;BME280;18669;53.356;-1.464;2022-10-31T14:56:46;99894.53;;;15.48;100.00
29839;BME280;18669;53.356;-1.464;2022-10-31T14:59:16;99900.25;;;15.41;100.00
29839;BME280;18669;53.356;-1.464;2022-10-31T15:02:01;99903.44;;;15.47;100.00
29839;BME280;18669;53.356;-1.464;2022-10-31T15:04:29;99893.25;;;15.40;100.00
29839;BME280;18669;53.356;-1.464;2022-10-31T15:07:10;99888.41;;;15.30;100.00
29839;BME280;18669;53.356;-1.464;2022-10-31T15:09:39;99887.06;;;15.39;100.00